sensor_id;sensor_type;location;lat;lon;timestamp;pressure;altitude;pressure_sealevel;temperature;humidity
21623;BME280;10973;46.706;12.340;2022-10-15T00:01:24;87363.72;;;12.58;56.22
21623;BME280;10973;46.706;12.340;2022-10-15T00:03:51;87367.13;;;12.58;56.20
21623;BME280;10973;46.706;12.340;2022-10-15T00:06:20;87366.34;;;12.61;56.03
21623;BME280;10973;46.706;12.340;2022-10-15T00:08:48;87365.22;;;12.62;56.12
21623;BME280;10973;46.706;12.340;2022-10-15T00:11:20;87364.88;;;12.60;56.24
21623;BME280;10973;46.706;12.340;2022-10-15T00:13:51;87366.34;;;12.61;56.21
21623;BME280;10973;46.706;12.340;2022-10-15T00:16:23;87365.22;;;12.62;56.21
21623;BME280;10973;46.706;12.340;2022-10-15T00:18:54;87361.06;;;12.61;55.97
21623;BME280;10973;46.706;12.340;2022-10-15T00:21:22;87360.69;;;12.63;55.78
21623;BME280;10973;46.706;12.340;2022-10-15T00:23:49;87358.81;;;12.60;55.87
21623;BME280;10973;46.706;12.340;2022-10-15T00:26:21;87363.72;;;12.58;55.41
21623;BME280;10973;46.706;12.340;2022-10-15T00:28:51;87362.97;;;12.57;55.74
21623;BME280;10973;46.706;12.340;2022-10-15T00:31:20;87360.31;;;12.57;55.70
21623;BME280;10973;46.706;12.340;2022-10-15T00:33:53;87353.91;;;12.58;55.53
21623;BME280;10973;46.706;12.340;2022-10-15T00:36:24;87350.88;;;12.56;55.39
21623;BME280;10973;46.706;12.340;2022-10-15T00:38:52;87363.34;;;12.59;55.22
21623;BME280;10973;46.706;12.340;2022-10-15T00:41:36;87352.00;;;12.59;55.18
21623;BME280;10973;46.706;12.340;2022-10-15T00:47:17;87342.97;;;12.60;54.68
21623;BME280;10973;46.706;12.340;2022-10-15T00:53:02;87342.19;;;12.59;54.45
21623;BME280;10973;46.706;12.340;2022-10-15T00:55:36;87342.19;;;12.59;54.38
21623;BME280;10973;46.706;12.340;2022-10-15T00:58:15;87338.03;;;12.62;54.25
21623;BME280;10973;46.706;12.340;2022-10-15T01:00:43;87341.44;;;12.62;53.97
21623;BME280;10973;46.706;12.340;2022-10-15T01:03:11;87353.50;;;12.63;53.82
21623;BME280;10973;46.706;12.340;2022-10-15T01:05:39;87343.28;;;12.65;53.68
21623;BME280;10973;46.706;12.340;2022-10-15T01:08:07;87342.19;;;12.66;53.80
21623;BME280;10973;46.706;12.340;2022-10-15T01:14:38;87335.75;;;12.67;53.53
21623;BME280;10973;46.706;12.340;2022-10-15T01:17:20;87333.13;;;12.64;53.75
21623;BME280;10973;46.706;12.340;2022-10-15T01:29:33;87325.56;;;12.62;54.38
21623;BME280;10973;46.706;12.340;2022-10-15T01:43:07;87324.44;;;12.60;54.36
21623;BME280;10973;46.706;12.340;2022-10-15T01:45:46;87319.56;;;12.58;54.42
21623;BME280;10973;46.706;12.340;2022-10-15T01:48:16;87323.69;;;12.59;54.63
21623;BME280;10973;46.706;12.340;2022-10-15T01:50:49;87322.94;;;12.59;54.54
21623;BME280;10973;46.706;12.340;2022-10-15T01:53:22;87321.44;;;12.58;54.61
21623;BME280;10973;46.706;12.340;2022-10-15T01:56:16;87315.78;;;12.56;54.14
21623;BME280;10973;46.706;12.340;2022-10-15T01:58:49;87314.66;;;12.53;54.40
21623;BME280;10973;46.706;12.340;2022-10-15T02:01:18;87305.19;;;12.52;54.45
21623;BME280;10973;46.706;12.340;2022-10-15T02:03:50;87312.00;;;12.50;55.34
21623;BME280;10973;46.706;12.340;2022-10-15T02:06:41;87308.66;;;12.42;55.66
21623;BME280;10973;46.706;12.340;2022-10-15T02:09:31;87302.59;;;12.42;55.68
21623;BME280;10973;46.706;12.340;2022-10-15T02:21:09;87306.44;;;12.20;56.76
21623;BME280;10973;46.706;12.340;2022-10-15T02:23:53;87307.16;;;12.20;57.07
21623;BME280;10973;46.706;12.340;2022-10-15T02:26:24;87304.53;;;12.16;57.10
21623;BME280;10973;46.706;12.340;2022-10-15T02:28:58;87305.28;;;12.13;57.21
21623;BME280;10973;46.706;12.340;2022-10-15T02:31:30;87293.59;;;12.11;57.19
21623;BME280;10973;46.706;12.340;2022-10-15T02:34:05;87300.03;;;12.10;57.30
21623;BME280;10973;46.706;12.340;2022-10-15T02:36:34;87298.16;;;12.07;57.43
21623;BME280;10973;46.706;12.340;2022-10-15T02:39:05;87297.78;;;12.05;57.53
21623;BME280;10973;46.706;12.340;2022-10-15T02:41:35;87300.44;;;12.01;57.63
21623;BME280;10973;46.706;12.340;2022-10-15T02:44:03;87303.06;;;11.98;57.79
21623;BME280;10973;46.706;12.340;2022-10-15T02:46:31;87294.03;;;11.99;57.77
21623;BME280;10973;46.706;12.340;2022-10-15T02:48:58;87294.41;;;11.94;57.97
21623;BME280;10973;46.706;12.340;2022-10-15T02:51:25;87285.72;;;11.93;57.87
21623;BME280;10973;46.706;12.340;2022-10-15T02:53:53;87289.09;;;11.90;57.89
21623;BME280;10973;46.706;12.340;2022-10-15T02:56:20;87285.38;;;11.88;57.99
21623;BME280;10973;46.706;12.340;2022-10-15T02:58:47;87281.19;;;11.87;58.09
21623;BME280;10973;46.706;12.340;2022-10-15T03:01:14;87283.47;;;11.85;58.05
21623;BME280;10973;46.706;12.340;2022-10-15T03:03:42;87288.38;;;11.83;58.07
21623;BME280;10973;46.706;12.340;2022-10-15T03:06:09;87286.09;;;11.81;58.10
21623;BME280;10973;46.706;12.340;2022-10-15T03:08:36;87292.91;;;11.79;58.37
21623;BME280;10973;46.706;12.340;2022-10-15T03:11:04;87280.44;;;11.72;58.29
21623;BME280;10973;46.706;12.340;2022-10-15T03:13:36;87283.88;;;11.76;58.23
21623;BME280;10973;46.706;12.340;2022-10-15T03:16:05;87277.44;;;11.77;58.19
21623;BME280;10973;46.706;12.340;2022-10-15T03:18:36;87275.56;;;11.74;58.40
21623;BME280;10973;46.706;12.340;2022-10-15T03:21:09;87270.66;;;11.73;58.54
21623;BME280;10973;46.706;12.340;2022-10-15T03:23:37;87268.41;;;11.71;58.75
21623;BME280;10973;46.706;12.340;2022-10-15T03:26:08;87274.06;;;11.70;58.83
21623;BME280;10973;46.706;12.340;2022-10-15T03:28:36;87275.19;;;11.69;58.80
21623;BME280;10973;46.706;12.340;2022-10-15T03:31:05;87268.78;;;11.70;58.69
21623;BME280;10973;46.706;12.340;2022-10-15T03:33:32;87265.00;;;11.67;58.63
21623;BME280;10973;46.706;12.340;2022-10-15T03:35:59;87272.53;;;11.69;58.53
21623;BME280;10973;46.706;12.340;2022-10-15T03:38:26;87278.94;;;11.64;58.98
21623;BME280;10973;46.706;12.340;2022-10-15T03:40:54;87280.44;;;11.62;58.66
21623;BME280;10973;46.706;12.340;2022-10-15T03:43:23;87288.72;;;11.64;58.79
21623;BME280;10973;46.706;12.340;2022-10-15T03:45:52;87276.69;;;11.63;58.76
21623;BME280;10973;46.706;12.340;2022-10-15T03:48:19;87274.78;;;11.63;58.94
21623;BME280;10973;46.706;12.340;2022-10-15T03:50:46;87272.91;;;11.60;59.11
21623;BME280;10973;46.706;12.340;2022-10-15T03:53:13;87269.88;;;11.62;58.91
21623;BME280;10973;46.706;12.340;2022-10-15T03:55:41;87266.47;;;11.61;58.98
21623;BME280;10973;46.706;12.340;2022-10-15T03:58:08;87266.88;;;11.60;58.94
21623;BME280;10973;46.706;12.340;2022-10-15T04:00:36;87274.41;;;11.61;59.05
21623;BME280;10973;46.706;12.340;2022-10-15T04:03:05;87266.09;;;11.59;59.16
21623;BME280;10973;46.706;12.340;2022-10-15T04:05:32;87270.63;;;11.59;59.17
21623;BME280;10973;46.706;12.340;2022-10-15T04:08:00;87270.25;;;11.57;59.27
21623;BME280;10973;46.706;12.340;2022-10-15T04:10:27;87270.63;;;11.59;59.40
21623;BME280;10973;46.706;12.340;2022-10-15T04:12:55;87275.91;;;11.59;59.10
21623;BME280;10973;46.706;12.340;2022-10-15T04:15:22;87273.66;;;11.57;59.15
21623;BME280;10973;46.706;12.340;2022-10-15T04:17:53;87273.28;;;11.55;59.27
21623;BME280;10973;46.706;12.340;2022-10-15T04:20:20;87267.25;;;11.51;59.35
21623;BME280;10973;46.706;12.340;2022-10-15T04:22:48;87272.91;;;11.53;59.05
21623;BME280;10973;46.706;12.340;2022-10-15T04:25:15;87272.16;;;11.53;59.22
21623;BME280;10973;46.706;12.340;2022-10-15T04:27:42;87269.13;;;11.51;59.41
21623;BME280;10973;46.706;12.340;2022-10-15T04:30:11;87271.00;;;11.50;59.43
21623;BME280;10973;46.706;12.340;2022-10-15T04:32:38;87268.75;;;11.48;59.67
21623;BME280;10973;46.706;12.340;2022-10-15T04:35:05;87275.53;;;11.49;59.54
21623;BME280;10973;46.706;12.340;2022-10-15T04:37:33;87276.69;;;11.48;59.43
21623;BME280;10973;46.706;12.340;2022-10-15T04:40:01;87275.16;;;11.47;59.35
21623;BME280;10973;46.706;12.340;2022-10-15T04:42:29;87278.56;;;11.48;59.32
21623;BME280;10973;46.706;12.340;2022-10-15T04:44:57;87276.69;;;11.48;59.47
21623;BME280;10973;46.706;12.340;2022-10-15T04:47:24;87272.16;;;11.45;59.23
21623;BME280;10973;46.706;12.340;2022-10-15T04:49:52;87277.41;;;11.45;59.49
21623;BME280;10973;46.706;12.340;2022-10-15T04:52:19;87278.19;;;11.42;59.53
21623;BME280;10973;46.706;12.340;2022-10-15T04:54:46;87276.28;;;11.43;59.48
21623;BME280;10973;46.706;12.340;2022-10-15T04:57:13;87276.66;;;11.45;59.40
21623;BME280;10973;46.706;12.340;2022-10-15T04:59:40;87277.41;;;11.45;59.46
21623;BME280;10973;46.706;12.340;2022-10-15T05:02:08;87276.66;;;11.45;59.59
21623;BME280;10973;46.706;12.340;2022-10-15T05:04:35;87278.19;;;11.42;59.59
21623;BME280;10973;46.706;12.340;2022-10-15T05:07:03;87282.34;;;11.40;59.54
21623;BME280;10973;46.706;12.340;2022-10-15T05:09:30;87284.22;;;11.39;59.78
21623;BME280;10973;46.706;12.340;2022-10-15T05:11:59;87279.69;;;11.40;59.56
21623;BME280;10973;46.706;12.340;2022-10-15T05:14:26;87273.28;;;11.41;59.83
21623;BME280;10973;46.706;12.340;2022-10-15T05:16:53;87280.06;;;11.42;59.76
21623;BME280;10973;46.706;12.340;2022-10-15T05:19:20;87287.22;;;11.41;59.67
21623;BME280;10973;46.706;12.340;2022-10-15T05:21:48;87275.91;;;11.41;59.67
21623;BME280;10973;46.706;12.340;2022-10-15T05:24:20;87277.78;;;11.40;59.94
21623;BME280;10973;46.706;12.340;2022-10-15T05:26:47;87293.25;;;11.42;60.01
21623;BME280;10973;46.706;12.340;2022-10-15T05:29:14;87294.03;;;11.42;59.80
21623;BME280;10973;46.706;12.340;2022-10-15T05:31:41;87290.97;;;11.40;59.83
21623;BME280;10973;46.706;12.340;2022-10-15T05:34:08;87292.50;;;11.41;59.78
21623;BME280;10973;46.706;12.340;2022-10-15T05:36:36;87297.78;;;11.41;59.85
21623;BME280;10973;46.706;12.340;2022-10-15T05:39:05;87298.16;;;11.43;59.44
21623;BME280;10973;46.706;12.340;2022-10-15T05:41:32;87291.00;;;11.44;60.00
21623;BME280;10973;46.706;12.340;2022-10-15T05:43:59;87293.25;;;11.45;59.89
21623;BME280;10973;46.706;12.340;2022-10-15T05:46:27;87296.66;;;11.46;59.81
21623;BME280;10973;46.706;12.340;2022-10-15T05:48:56;87295.88;;;11.45;60.07
21623;BME280;10973;46.706;12.340;2022-10-15T05:51:25;87297.78;;;11.41;59.95
21623;BME280;10973;46.706;12.340;2022-10-15T05:53:57;87301.94;;;11.42;60.14
21623;BME280;10973;46.706;12.340;2022-10-15T05:56:25;87299.28;;;11.42;59.91
21623;BME280;10973;46.706;12.340;2022-10-15T05:58:53;87305.31;;;11.43;60.08
21623;BME280;10973;46.706;12.340;2022-10-15T06:01:21;87291.38;;;11.42;60.14
21623;BME280;10973;46.706;12.340;2022-10-15T06:03:48;87290.25;;;11.43;60.14
21623;BME280;10973;46.706;12.340;2022-10-15T06:06:26;87288.72;;;11.46;60.15
21623;BME280;10973;46.706;12.340;2022-10-15T06:08:54;87290.25;;;11.47;59.99
21623;BME280;10973;46.706;12.340;2022-10-15T06:11:21;87289.88;;;11.48;59.91
21623;BME280;10973;46.706;12.340;2022-10-15T06:13:48;87286.47;;;11.48;59.83
21623;BME280;10973;46.706;12.340;2022-10-15T06:16:17;87286.84;;;11.50;59.80
21623;BME280;10973;46.706;12.340;2022-10-15T06:18:51;87290.63;;;11.49;59.90
21623;BME280;10973;46.706;12.340;2022-10-15T06:21:18;87290.63;;;11.53;59.46
21623;BME280;10973;46.706;12.340;2022-10-15T06:23:46;87299.28;;;11.53;59.42
21623;BME280;10973;46.706;12.340;2022-10-15T06:26:13;87302.31;;;11.52;59.16
21623;BME280;10973;46.706;12.340;2022-10-15T06:28:40;87298.91;;;11.51;59.24
21623;BME280;10973;46.706;12.340;2022-10-15T06:31:08;87291.34;;;11.49;59.41
21623;BME280;10973;46.706;12.340;2022-10-15T06:33:35;87300.03;;;11.46;59.39
21623;BME280;10973;46.706;12.340;2022-10-15T06:36:05;87301.53;;;11.47;59.61
21623;BME280;10973;46.706;12.340;2022-10-15T06:38:34;87298.53;;;11.45;59.34
21623;BME280;10973;46.706;12.340;2022-10-15T06:41:06;87299.28;;;11.46;59.48
21623;BME280;10973;46.706;12.340;2022-10-15T06:43:34;87305.69;;;11.45;59.04
21623;BME280;10973;46.706;12.340;2022-10-15T06:46:03;87314.00;;;11.47;59.30
21623;BME280;10973;46.706;12.340;2022-10-15T06:48:32;87321.91;;;11.47;59.24
21623;BME280;10973;46.706;12.340;2022-10-15T06:51:01;87324.91;;;11.45;59.26
21623;BME280;10973;46.706;12.340;2022-10-15T06:53:29;87323.41;;;11.48;59.34
21623;BME280;10973;46.706;12.340;2022-10-15T06:55:59;87324.91;;;11.53;59.36
21623;BME280;10973;46.706;12.340;2022-10-15T06:58:27;87321.53;;;11.52;59.52
21623;BME280;10973;46.706;12.340;2022-10-15T07:01:03;87323.81;;;11.54;59.42
21623;BME280;10973;46.706;12.340;2022-10-15T07:03:31;87321.53;;;11.56;59.49
21623;BME280;10973;46.706;12.340;2022-10-15T07:06:03;87320.41;;;11.60;59.21
21623;BME280;10973;46.706;12.340;2022-10-15T07:08:32;87329.09;;;11.68;59.40
21623;BME280;10973;46.706;12.340;2022-10-15T07:11:04;87328.72;;;11.73;59.34
21623;BME280;10973;46.706;12.340;2022-10-15T07:13:32;87321.56;;;11.77;59.03
21623;BME280;10973;46.706;12.340;2022-10-15T07:16:07;87322.31;;;11.81;59.12
21623;BME280;10973;46.706;12.340;2022-10-15T07:18:35;87326.84;;;11.87;58.93
21623;BME280;10973;46.706;12.340;2022-10-15T07:21:05;87324.19;;;11.91;58.79
21623;BME280;10973;46.706;12.340;2022-10-15T07:23:33;87330.97;;;11.95;58.57
21623;BME280;10973;46.706;12.340;2022-10-15T07:26:00;87327.22;;;11.96;58.28
21623;BME280;10973;46.706;12.340;2022-10-15T07:28:28;87332.47;;;12.00;58.57
21623;BME280;10973;46.706;12.340;2022-10-15T07:31:01;87334.00;;;12.04;58.59
21623;BME280;10973;46.706;12.340;2022-10-15T07:33:30;87324.94;;;12.09;58.34
21623;BME280;10973;46.706;12.340;2022-10-15T07:35:57;87313.97;;;12.14;58.35
21623;BME280;10973;46.706;12.340;2022-10-15T07:38:24;87328.31;;;12.24;58.40
21623;BME280;10973;46.706;12.340;2022-10-15T07:40:51;87321.88;;;12.28;58.29
21623;BME280;10973;46.706;12.340;2022-10-15T07:43:18;87323.75;;;12.35;58.28
21623;BME280;10973;46.706;12.340;2022-10-15T07:45:48;87312.78;;;12.36;58.26
21623;BME280;10973;46.706;12.340;2022-10-15T07:48:16;87318.84;;;12.40;58.24
21623;BME280;10973;46.706;12.340;2022-10-15T07:50:43;87314.66;;;12.43;57.95
21623;BME280;10973;46.706;12.340;2022-10-15T07:53:11;87311.28;;;12.49;57.69
21623;BME280;10973;46.706;12.340;2022-10-15T07:55:38;87312.00;;;12.57;57.80
21623;BME280;10973;46.706;12.340;2022-10-15T07:58:05;87307.81;;;12.66;57.51
21623;BME280;10973;46.706;12.340;2022-10-15T08:00:33;87310.44;;;12.73;57.75
21623;BME280;10973;46.706;12.340;2022-10-15T08:03:00;87312.66;;;12.85;57.52
21623;BME280;10973;46.706;12.340;2022-10-15T08:05:27;87311.09;;;12.92;57.23
21623;BME280;10973;46.706;12.340;2022-10-15T08:07:55;87322.38;;;13.03;56.91
21623;BME280;10973;46.706;12.340;2022-10-15T08:10:22;87322.34;;;13.13;56.95
21623;BME280;10973;46.706;12.340;2022-10-15T08:12:49;87323.06;;;13.28;56.32
21623;BME280;10973;46.706;12.340;2022-10-15T08:15:17;87327.13;;;13.43;56.11
21623;BME280;10973;46.706;12.340;2022-10-15T08:17:44;87320.25;;;13.52;54.60
21623;BME280;10973;46.706;12.340;2022-10-15T08:20:11;87321.66;;;13.68;53.88
21623;BME280;10973;46.706;12.340;2022-10-15T08:22:39;87318.91;;;13.82;54.08
21623;BME280;10973;46.706;12.340;2022-10-15T08:25:06;87326.34;;;14.01;53.92
21623;BME280;10973;46.706;12.340;2022-10-15T08:27:34;87328.47;;;14.16;53.35
21623;BME280;10973;46.706;12.340;2022-10-15T08:30:01;87323.47;;;14.25;53.27
21623;BME280;10973;46.706;12.340;2022-10-15T08:32:28;87326.06;;;14.36;53.38
21623;BME280;10973;46.706;12.340;2022-10-15T08:34:55;87316.47;;;14.49;52.73
21623;BME280;10973;46.706;12.340;2022-10-15T08:37:22;87312.56;;;14.61;52.60
21623;BME280;10973;46.706;12.340;2022-10-15T08:39:49;87314.41;;;14.67;52.48
21623;BME280;10973;46.706;12.340;2022-10-15T08:42:25;87305.22;;;14.75;52.40
21623;BME280;10973;46.706;12.340;2022-10-15T08:45:06;87314.56;;;14.87;52.52
21623;BME280;10973;46.706;12.340;2022-10-15T08:47:45;87324.75;;;14.88;52.06
21623;BME280;10973;46.706;12.340;2022-10-15T08:50:42;87321.69;;;14.93;52.27
21623;BME280;10973;46.706;12.340;2022-10-15T08:53:18;87320.91;;;14.96;52.73
21623;BME280;10973;46.706;12.340;2022-10-15T08:55:52;87321.56;;;15.04;52.62
21623;BME280;10973;46.706;12.340;2022-10-15T08:58:50;87319.66;;;15.05;52.09
21623;BME280;10973;46.706;12.340;2022-10-15T09:04:04;87310.91;;;15.08;51.49
21623;BME280;10973;46.706;12.340;2022-10-15T09:06:38;87312.81;;;15.07;51.94
21623;BME280;10973;46.706;12.340;2022-10-15T09:09:39;87324.19;;;15.08;52.11
21623;BME280;10973;46.706;12.340;2022-10-15T09:12:52;87326.84;;;15.04;51.83
21623;BME280;10973;46.706;12.340;2022-10-15T09:15:25;87320.06;;;15.03;52.15
21623;BME280;10973;46.706;12.340;2022-10-15T09:17:54;87332.16;;;15.04;51.99
21623;BME280;10973;46.706;12.340;2022-10-15T09:20:32;87325.31;;;15.07;52.06
21623;BME280;10973;46.706;12.340;2022-10-15T09:23:00;87329.78;;;15.13;52.06
21623;BME280;10973;46.706;12.340;2022-10-15T09:25:39;87329.31;;;15.22;52.15
21623;BME280;10973;46.706;12.340;2022-10-15T09:28:16;87329.22;;;15.29;52.18
21623;BME280;10973;46.706;12.340;2022-10-15T09:30:54;87332.88;;;15.38;51.64
21623;BME280;10973;46.706;12.340;2022-10-15T09:33:45;87330.19;;;15.45;50.98
21623;BME280;10973;46.706;12.340;2022-10-15T09:36:40;87330.19;;;15.45;50.32
21623;BME280;10973;46.706;12.340;2022-10-15T09:42:33;87340.03;;;15.45;50.40
21623;BME280;10973;46.706;12.340;2022-10-15T09:45:10;87340.03;;;15.45;49.92
21623;BME280;10973;46.706;12.340;2022-10-15T09:47:41;87336.59;;;15.48;50.25
21623;BME280;10973;46.706;12.340;2022-10-15T09:50:13;87337.34;;;15.48;50.46
21623;BME280;10973;46.706;12.340;2022-10-15T09:53:02;87336.56;;;15.51;50.18
21623;BME280;10973;46.706;12.340;2022-10-15T09:55:55;87339.91;;;15.55;50.42
21623;BME280;10973;46.706;12.340;2022-10-15T09:58:45;87342.84;;;15.64;50.39
21623;BME280;10973;46.706;12.340;2022-10-15T10:04:08;87357.06;;;15.78;50.21
21623;BME280;10973;46.706;12.340;2022-10-15T10:06:53;87353.97;;;15.83;50.00
21623;BME280;10973;46.706;12.340;2022-10-15T10:09:31;87346.63;;;15.90;49.95
21623;BME280;10973;46.706;12.340;2022-10-15T10:12:17;87345.03;;;15.96;49.61
21623;BME280;10973;46.706;12.340;2022-10-15T10:14:55;87336.22;;;16.03;49.66
21623;BME280;10973;46.706;12.340;2022-10-15T10:17:29;87334.91;;;16.14;49.05
21623;BME280;10973;46.706;12.340;2022-10-15T10:22:51;87338.91;;;16.26;48.77
21623;BME280;10973;46.706;12.340;2022-10-15T10:25:41;87335.06;;;16.27;48.85
21623;BME280;10973;46.706;12.340;2022-10-15T10:30:58;87340.34;;;16.30;48.42
21623;BME280;10973;46.706;12.340;2022-10-15T10:33:46;87354.75;;;16.33;47.82
21623;BME280;10973;46.706;12.340;2022-10-15T10:36:30;87344.84;;;16.33;47.81
21623;BME280;10973;46.706;12.340;2022-10-15T10:42:03;87347.50;;;16.60;47.65
21623;BME280;10973;46.706;12.340;2022-10-15T10:44:41;87348.75;;;16.75;47.35
21623;BME280;10973;46.706;12.340;2022-10-15T10:47:22;87352.31;;;16.88;47.05
21623;BME280;10973;46.706;12.340;2022-10-15T10:49:56;87329.75;;;16.96;46.64
21623;BME280;10973;46.706;12.340;2022-10-15T10:52:32;87330.63;;;17.09;46.69
21623;BME280;10973;46.706;12.340;2022-10-15T10:55:20;87327.19;;;17.29;46.10
21623;BME280;10973;46.706;12.340;2022-10-15T10:57:51;87337.09;;;17.48;45.47
21623;BME280;10973;46.706;12.340;2022-10-15T11:00:54;87331.19;;;17.60;44.76
21623;BME280;10973;46.706;12.340;2022-10-15T11:03:37;87334.44;;;17.67;43.99
21623;BME280;10973;46.706;12.340;2022-10-15T11:14:47;87352.13;;;17.77;43.42
21623;BME280;10973;46.706;12.340;2022-10-15T11:18:28;87349.13;;;17.75;43.50
21623;BME280;10973;46.706;12.340;2022-10-15T11:29:55;87339.75;;;18.87;41.03
21623;BME280;10973;46.706;12.340;2022-10-15T11:47:54;87306.47;;;24.19;30.72
21623;BME280;10973;46.706;12.340;2022-10-15T11:50:40;87309.59;;;24.77;30.35
21623;BME280;10973;46.706;12.340;2022-10-15T11:56:27;87302.34;;;25.48;29.05
21623;BME280;10973;46.706;12.340;2022-10-15T12:01:54;87297.50;;;25.91;28.40
21623;BME280;10973;46.706;12.340;2022-10-15T12:04:56;87296.31;;;25.92;27.94
21623;BME280;10973;46.706;12.340;2022-10-15T12:07:41;87302.38;;;25.63;28.69
21623;BME280;10973;46.706;12.340;2022-10-15T12:13:07;87297.03;;;25.07;29.08
21623;BME280;10973;46.706;12.340;2022-10-15T12:16:20;87292.47;;;24.47;30.04
21623;BME280;10973;46.706;12.340;2022-10-15T12:22:00;87291.25;;;23.70;30.73
21623;BME280;10973;46.706;12.340;2022-10-15T12:30:12;87283.75;;;23.29;31.63
21623;BME280;10973;46.706;12.340;2022-10-15T12:32:45;87289.41;;;23.13;32.12
21623;BME280;10973;46.706;12.340;2022-10-15T12:37:47;87285.97;;;22.85;32.40
21623;BME280;10973;46.706;12.340;2022-10-15T12:43:02;87288.72;;;22.63;32.43
21623;BME280;10973;46.706;12.340;2022-10-15T12:48:29;87281.34;;;22.15;33.93
21623;BME280;10973;46.706;12.340;2022-10-15T12:53:44;87281.44;;;21.81;34.04
21623;BME280;10973;46.706;12.340;2022-10-15T12:58:54;87287.94;;;21.49;35.47
21623;BME280;10973;46.706;12.340;2022-10-15T13:11:54;87287.59;;;20.57;37.62
21623;BME280;10973;46.706;12.340;2022-10-15T13:14:47;87277.31;;;20.43;38.31
21623;BME280;10973;46.706;12.340;2022-10-15T13:17:19;87274.00;;;20.39;38.31
21623;BME280;10973;46.706;12.340;2022-10-15T13:20:05;87280.84;;;20.40;38.19
21623;BME280;10973;46.706;12.340;2022-10-15T13:22:35;87278.94;;;20.28;38.33
21623;BME280;10973;46.706;12.340;2022-10-15T13:25:03;87271.34;;;20.26;38.41
21623;BME280;10973;46.706;12.340;2022-10-15T13:27:36;87275.84;;;20.29;38.52
21623;BME280;10973;46.706;12.340;2022-10-15T13:32:45;87274.34;;;20.28;38.32
21623;BME280;10973;46.706;12.340;2022-10-15T13:35:20;87276.38;;;20.24;38.72
21623;BME280;10973;46.706;12.340;2022-10-15T13:37:49;87277.97;;;20.22;38.28
21623;BME280;10973;46.706;12.340;2022-10-15T13:40:26;87275.41;;;20.31;39.29
21623;BME280;10973;46.706;12.340;2022-10-15T13:43:16;87277.63;;;20.57;39.68
21623;BME280;10973;46.706;12.340;2022-10-15T13:45:55;87281.97;;;20.77;39.23
21623;BME280;10973;46.706;12.340;2022-10-15T13:48:30;87274.69;;;20.77;38.55
21623;BME280;10973;46.706;12.340;2022-10-15T13:51:01;87281.03;;;20.71;38.78
21623;BME280;10973;46.706;12.340;2022-10-15T13:53:41;87271.28;;;20.64;38.60
21623;BME280;10973;46.706;12.340;2022-10-15T13:56:29;87271.53;;;20.57;38.38
21623;BME280;10973;46.706;12.340;2022-10-15T13:59:00;87281.69;;;20.49;38.66
21623;BME280;10973;46.706;12.340;2022-10-15T14:01:29;87286.09;;;20.43;38.67
21623;BME280;10973;46.706;12.340;2022-10-15T14:04:00;87279.47;;;20.35;38.91
21623;BME280;10973;46.706;12.340;2022-10-15T14:06:33;87273.28;;;20.26;39.41
21623;BME280;10973;46.706;12.340;2022-10-15T14:09:21;87276.22;;;20.15;40.18
21623;BME280;10973;46.706;12.340;2022-10-15T14:11:49;87285.13;;;20.12;39.95
21623;BME280;10973;46.706;12.340;2022-10-15T14:14:37;87282.88;;;20.11;40.22
21623;BME280;10973;46.706;12.340;2022-10-15T14:19:59;87286.28;;;19.86;39.65
21623;BME280;10973;46.706;12.340;2022-10-15T14:22:48;87287.78;;;19.74;40.00
21623;BME280;10973;46.706;12.340;2022-10-15T14:25:23;87292.03;;;19.72;39.93
21623;BME280;10973;46.706;12.340;2022-10-15T14:27:52;87297.06;;;19.70;40.22
21623;BME280;10973;46.706;12.340;2022-10-15T14:30:37;87293.66;;;19.69;40.31
21623;BME280;10973;46.706;12.340;2022-10-15T14:33:04;87294.38;;;19.57;40.28
21623;BME280;10973;46.706;12.340;2022-10-15T14:35:35;87297.81;;;19.58;40.09
21623;BME280;10973;46.706;12.340;2022-10-15T14:40:36;87300.72;;;19.35;39.81
21623;BME280;10973;46.706;12.340;2022-10-15T14:43:06;87302.06;;;19.27;39.83
21623;BME280;10973;46.706;12.340;2022-10-15T14:45:54;87297.84;;;19.13;40.10
21623;BME280;10973;46.706;12.340;2022-10-15T14:48:32;87302.22;;;19.07;40.40
21623;BME280;10973;46.706;12.340;2022-10-15T14:51:11;87306.59;;;19.01;40.63
21623;BME280;10973;46.706;12.340;2022-10-15T14:53:44;87304.41;;;18.96;40.70
21623;BME280;10973;46.706;12.340;2022-10-15T14:56:22;87304.84;;;18.94;41.47
21623;BME280;10973;46.706;12.340;2022-10-15T14:58:59;87312.63;;;18.89;41.32
21623;BME280;10973;46.706;12.340;2022-10-15T15:01:26;87306.84;;;18.90;41.16
21623;BME280;10973;46.706;12.340;2022-10-15T15:03:56;87310.78;;;18.86;41.54
21623;BME280;10973;46.706;12.340;2022-10-15T15:06:23;87307.44;;;18.82;42.14
21623;BME280;10973;46.706;12.340;2022-10-15T15:08:50;87312.13;;;18.78;42.57
21623;BME280;10973;46.706;12.340;2022-10-15T15:11:21;87314.22;;;18.70;42.54
21623;BME280;10973;46.706;12.340;2022-10-15T15:13:50;87308.31;;;18.63;43.20
21623;BME280;10973;46.706;12.340;2022-10-15T15:16:18;87319.50;;;18.58;43.83
21623;BME280;10973;46.706;12.340;2022-10-15T15:18:46;87317.81;;;18.47;44.20
21623;BME280;10973;46.706;12.340;2022-10-15T15:21:21;87326.28;;;18.42;44.18
21623;BME280;10973;46.706;12.340;2022-10-15T15:23:50;87324.22;;;18.34;44.85
21623;BME280;10973;46.706;12.340;2022-10-15T15:26:17;87319.78;;;18.27;45.45
21623;BME280;10973;46.706;12.340;2022-10-15T15:28:44;87324.13;;;18.21;45.33
21623;BME280;10973;46.706;12.340;2022-10-15T15:31:18;87323.88;;;18.16;46.39
21623;BME280;10973;46.706;12.340;2022-10-15T15:33:45;87330.59;;;18.04;46.49
21623;BME280;10973;46.706;12.340;2022-10-15T15:36:16;87336.44;;;17.99;46.62
21623;BME280;10973;46.706;12.340;2022-10-15T15:38:49;87335.75;;;17.95;47.02